createdAt,value
2023-03-14T00:00:25.485Z,61.99
2023-03-14T00:03:50.067Z,60.87
2023-03-14T00:07:39.292Z,61.67
2023-03-14T00:11:19.780Z,64.19
2023-03-14T00:14:50.598Z,61.76
2023-03-14T00:18:19.036Z,61.93
2023-03-14T00:21:59.307Z,62.03
2023-03-14T00:24:59.665Z,61.86
2023-03-14T00:28:32.285Z,63.78
2023-03-14T00:32:14.558Z,61.95
2023-03-14T00:35:21.886Z,63.84
2023-03-14T00:39:11.120Z,65.31
2023-03-14T00:43:00.309Z,65.21
2023-03-14T00:46:49.518Z,65.18
2023-03-14T00:54:20.347Z,66.21
2023-03-14T00:58:09.743Z,68.06
2023-03-14T01:01:54.260Z,65.26
2023-03-14T01:05:43.636Z,64.30
2023-03-14T01:09:32.572Z,63.00
2023-03-14T01:13:21.831Z,62.98
2023-03-14T01:17:03.475Z,63.34
2023-03-14T01:20:52.762Z,65.26
2023-03-14T01:24:42.097Z,62.59
2023-03-14T01:28:30.169Z,62.21
2023-03-14T01:32:09.302Z,61.95
2023-03-14T01:35:06.688Z,62.96
2023-03-14T01:38:54.505Z,62.38
2023-03-14T01:42:43.719Z,63.43
2023-03-14T01:46:46.393Z,63.73
2023-03-14T01:50:04.679Z,62.52
2023-03-14T01:52:50.212Z,62.40
2023-03-14T01:56:38.319Z,62.73
2023-03-14T02:00:27.573Z,62.58
2023-03-14T02:04:09.326Z,63.68
2023-03-14T02:08:04.854Z,66.11
2023-03-14T02:11:54.110Z,63.45
2023-03-14T02:16:01.564Z,63.11
2023-03-14T02:19:59.704Z,63.32
2023-03-14T02:23:48.977Z,64.13
2023-03-14T02:27:47.267Z,65.14
2023-03-14T02:31:36.569Z,66.39
2023-03-14T02:35:24.562Z,65.37
2023-03-14T02:39:07.930Z,64.37
2023-03-14T02:42:57.215Z,63.76
2023-03-14T02:46:37.568Z,64.57
2023-03-14T02:50:26.518Z,65.05
2023-03-14T02:53:59.205Z,63.35
2023-03-14T02:57:40.925Z,62.94
2023-03-14T03:01:22.977Z,63.16
2023-03-14T03:05:03.649Z,63.90
2023-03-14T03:08:52.860Z,66.97
2023-03-14T03:12:42.110Z,67.00
2023-03-14T03:16:22.718Z,65.20
2023-03-14T03:20:11.757Z,64.22
2023-03-14T03:24:01.161Z,66.90
2023-03-14T03:27:49.352Z,66.39
2023-03-14T03:31:16.965Z,66.69
2023-03-14T03:34:39.028Z,65.31
2023-03-14T03:37:55.563Z,65.75
2023-03-14T03:41:25.142Z,64.92
2023-03-14T03:44:50.897Z,66.13
2023-03-14T03:48:27.097Z,65.75
2023-03-14T03:51:59.483Z,66.86
2023-03-14T03:55:40.312Z,67.65
2023-03-14T03:59:18.256Z,67.25
2023-03-14T04:02:32.192Z,67.86
2023-03-14T04:06:21.730Z,67.21
2023-03-14T04:09:25.336Z,66.84
2023-03-14T04:12:49.474Z,66.32
2023-03-14T04:16:18.470Z,68.30
2023-03-14T04:19:23.150Z,67.14
2023-03-14T04:22:56.868Z,68.21
2023-03-14T04:26:24.022Z,68.88
2023-03-14T04:29:35.537Z,68.99
2023-03-14T04:32:56.147Z,69.01
2023-03-14T04:36:45.568Z,68.64
2023-03-14T04:40:28.442Z,70.02
2023-03-14T04:44:17.617Z,68.87
2023-03-14T04:47:50.403Z,66.47
2023-03-14T04:50:35.950Z,65.62
2023-03-14T04:53:57.973Z,67.37
2023-03-14T04:57:18.676Z,67.70
2023-03-14T05:00:37.159Z,68.91
2023-03-14T05:04:08.745Z,66.68
2023-03-14T05:07:40.485Z,70.62
2023-03-14T05:11:25.405Z,68.54
2023-03-14T05:15:17.085Z,67.83
2023-03-14T05:18:41.010Z,69.16
2023-03-14T05:21:48.584Z,68.73
2023-03-14T05:25:00.485Z,68.12
2023-03-14T05:28:55.440Z,67.38
2023-03-14T05:31:53.921Z,67.04
2023-03-14T05:35:04.477Z,66.52
2023-03-14T05:38:41.032Z,66.18
2023-03-14T05:42:03.672Z,66.17
2023-03-14T05:45:33.883Z,67.31
2023-03-14T05:49:04.893Z,66.94
2023-03-14T05:52:05.692Z,66.96
2023-03-14T05:56:10.265Z,66.42
2023-03-14T05:59:25.799Z,65.95
2023-03-14T06:02:33.037Z,64.94
2023-03-14T06:05:27.162Z,63.81
2023-03-14T06:08:17.953Z,60.87
2023-03-14T06:11:03.909Z,61.42
2023-03-14T06:13:38.172Z,60.80
2023-03-14T06:16:16.584Z,55.92
2023-03-14T06:19:11.455Z,56.63
2023-03-14T06:21:40.559Z,54.74
2023-03-14T06:24:09.234Z,51.42
2023-03-14T06:26:42.745Z,52.55
2023-03-14T06:29:14.632Z,49.95
2023-03-14T06:32:03.757Z,50.87
2023-03-14T06:34:40.013Z,42.26
2023-03-14T06:37:08.765Z,44.80
2023-03-14T06:39:38.642Z,39.80
2023-03-14T06:42:12.297Z,38.51
2023-03-14T06:44:41.114Z,38.92
2023-03-14T06:47:09.589Z,37.99
2023-03-14T06:49:40.987Z,36.63
2023-03-14T06:52:09.983Z,39.11
2023-03-14T06:54:38.428Z,35.37
2023-03-14T06:57:06.705Z,34.97
2023-03-14T06:59:35.092Z,33.49
2023-03-14T07:02:03.959Z,34.77
2023-03-14T07:04:35.251Z,32.54
2023-03-14T07:07:03.731Z,31.56
2023-03-14T07:09:35.387Z,30.80
2023-03-14T07:12:05.356Z,30.75
2023-03-14T07:14:33.867Z,30.78
2023-03-14T07:17:02.289Z,30.12
2023-03-14T07:19:30.820Z,30.17
2023-03-14T07:35:21.677Z,26.46
2023-03-14T07:37:50.165Z,24.80
2023-03-14T07:40:20.487Z,25.88
2023-03-14T07:42:49.498Z,25.26
2023-03-14T07:45:25.124Z,24.75
2023-03-14T07:47:53.693Z,25.07
2023-03-14T07:50:22.013Z,25.87
2023-03-14T07:52:53.725Z,24.53
2023-03-14T07:55:22.601Z,24.07
2023-03-14T07:57:50.957Z,24.51
2023-03-14T08:00:19.947Z,23.78
2023-03-14T08:02:48.347Z,23.97
2023-03-14T08:05:16.881Z,24.77
2023-03-14T08:07:45.221Z,23.80
2023-03-14T08:10:16.966Z,24.15
2023-03-14T08:12:47.942Z,23.36
2023-03-14T08:15:16.249Z,23.98
2023-03-14T08:17:51.927Z,24.77
2023-03-14T08:20:24.205Z,24.94
2023-03-14T08:22:52.412Z,24.05
2023-03-14T08:25:20.746Z,24.06
2023-03-14T08:27:49.195Z,24.04
2023-03-14T08:30:19.273Z,23.61
2023-03-14T08:32:47.895Z,23.81
2023-03-14T08:35:17.145Z,23.33
2023-03-14T08:37:45.520Z,23.23
2023-03-14T08:40:14.387Z,22.68
2023-03-14T08:42:43.351Z,23.51
2023-03-14T08:45:16.112Z,22.61
2023-03-14T08:47:45.857Z,23.44
2023-03-14T08:50:16.438Z,23.22
2023-03-14T08:52:45.098Z,23.07
2023-03-14T08:55:13.464Z,22.87
2023-03-14T08:57:41.881Z,22.81
2023-03-14T09:00:13.599Z,22.66
2023-03-14T09:02:43.079Z,22.62
2023-03-14T09:05:12.295Z,22.18
2023-03-14T09:07:41.815Z,21.86
2023-03-14T09:10:11.639Z,23.07
2023-03-14T09:12:39.953Z,23.10
2023-03-14T09:15:09.624Z,22.82
2023-03-14T09:17:38.111Z,22.89
2023-03-14T09:20:10.174Z,22.48
2023-03-14T09:22:38.489Z,22.53
2023-03-14T09:25:07.796Z,21.00
2023-03-14T09:27:36.109Z,22.16
2023-03-14T09:30:05.726Z,21.22
2023-03-14T09:32:33.964Z,22.05
2023-03-14T09:35:02.469Z,21.69
2023-03-14T09:37:30.921Z,20.65
2023-03-14T09:39:59.220Z,20.56
2023-03-14T09:42:28.920Z,20.31
2023-03-14T09:45:08.932Z,19.96
2023-03-14T09:47:41.448Z,19.93
2023-03-14T09:50:16.984Z,20.17
2023-03-14T09:52:57.337Z,20.06
2023-03-14T09:55:25.712Z,19.43
2023-03-14T09:58:01.204Z,19.48
2023-03-14T10:00:31.892Z,20.49
2023-03-14T10:03:26.668Z,20.03
2023-03-14T10:05:57.224Z,18.44
2023-03-14T10:08:25.675Z,18.83
2023-03-14T10:10:54.906Z,19.28
2023-03-14T10:13:27.153Z,19.73
2023-03-14T10:16:00.548Z,19.21
2023-03-14T10:18:31.547Z,18.74
2023-03-14T10:21:18.018Z,17.54
2023-03-14T10:23:48.000Z,17.59
2023-03-14T10:26:24.460Z,18.36
2023-03-14T10:28:54.813Z,17.35
2023-03-14T10:31:27.257Z,17.34
2023-03-14T10:34:05.450Z,17.57
2023-03-14T10:36:36.224Z,18.27
2023-03-14T10:39:35.612Z,18.85
2023-03-14T10:42:12.233Z,18.36
2023-03-14T10:44:42.487Z,19.27
2023-03-14T10:47:20.547Z,18.25
2023-03-14T10:49:49.056Z,18.60
2023-03-14T10:52:30.905Z,19.46
2023-03-14T10:55:03.349Z,18.52
2023-03-14T10:57:31.809Z,19.33
2023-03-14T11:00:00.366Z,19.74
2023-03-14T11:02:44.195Z,19.61
2023-03-14T11:05:31.593Z,19.32
2023-03-14T11:08:10.708Z,19.45
2023-03-14T11:10:44.129Z,19.51
2023-03-14T11:13:40.519Z,20.00
2023-03-14T11:16:28.181Z,20.48
2023-03-14T11:19:24.377Z,20.45
2023-03-14T11:22:33.066Z,21.25
2023-03-14T11:25:21.907Z,21.30
2023-03-14T11:28:03.112Z,22.22
2023-03-14T11:31:11.979Z,21.82
2023-03-14T11:34:19.941Z,22.89
2023-03-14T11:37:36.989Z,22.46
2023-03-14T11:40:29.549Z,23.50
2023-03-14T11:44:12.917Z,23.79
2023-03-14T11:47:11.398Z,23.32
2023-03-14T11:50:03.729Z,23.58
2023-03-14T11:52:51.782Z,24.36
2023-03-14T11:55:39.164Z,24.32
2023-03-14T11:58:53.558Z,24.92
2023-03-14T12:01:44.330Z,25.23
2023-03-14T12:04:20.675Z,26.79
2023-03-14T12:07:03.253Z,26.51
2023-03-14T12:09:52.681Z,26.44
2023-03-14T12:12:30.138Z,25.45
2023-03-14T12:15:26.123Z,25.48
2023-03-14T12:18:23.548Z,25.91
2023-03-14T12:21:22.247Z,27.28
2023-03-14T12:23:59.161Z,26.81
2023-03-14T12:26:44.572Z,27.25
2023-03-14T12:29:20.019Z,26.90
2023-03-14T12:32:12.588Z,26.93
2023-03-14T12:34:50.381Z,27.29
2023-03-14T12:37:46.577Z,27.26
2023-03-14T12:40:40.609Z,27.60
2023-03-14T12:43:57.393Z,27.54
2023-03-14T12:47:05.388Z,27.89
2023-03-14T12:49:39.182Z,28.10
2023-03-14T12:52:55.552Z,28.02
2023-03-14T12:56:12.507Z,27.93
2023-03-14T12:59:15.886Z,27.64
2023-03-14T13:01:57.393Z,27.70
2023-03-14T13:04:47.205Z,28.26
2023-03-14T13:07:50.954Z,27.57
2023-03-14T13:10:38.206Z,27.47
2023-03-14T13:13:07.546Z,27.56
2023-03-14T13:15:44.810Z,27.51
2023-03-14T13:18:18.069Z,27.02
2023-03-14T13:21:00.329Z,26.78
2023-03-14T13:23:31.502Z,27.00
2023-03-14T13:26:01.773Z,26.51
2023-03-14T13:28:32.265Z,26.88
2023-03-14T13:31:03.546Z,26.58
2023-03-14T13:33:34.252Z,26.55
2023-03-14T13:36:06.587Z,26.89
2023-03-14T13:38:37.435Z,26.08
2023-03-14T13:41:08.792Z,26.15
2023-03-14T13:43:42.243Z,26.29
2023-03-14T13:46:21.472Z,25.48
2023-03-14T13:48:53.471Z,25.61
2023-03-14T13:51:23.591Z,25.76
2023-03-14T13:53:54.317Z,25.86
2023-03-14T13:56:25.527Z,25.72
2023-03-14T13:58:54.228Z,26.33
2023-03-14T14:01:38.956Z,25.85
2023-03-14T14:04:15.425Z,25.96
2023-03-14T14:06:59.229Z,25.87
2023-03-14T14:09:31.456Z,26.61
2023-03-14T14:12:15.489Z,25.39
2023-03-14T14:14:48.123Z,25.55
2023-03-14T14:17:20.661Z,25.32
2023-03-14T14:19:49.952Z,24.18
2023-03-14T14:22:19.371Z,24.10
2023-03-14T14:24:48.852Z,23.86
2023-03-14T14:27:36.133Z,23.40
2023-03-14T14:30:32.519Z,24.06
2023-03-14T14:33:19.708Z,24.29
2023-03-14T14:35:54.730Z,24.80
2023-03-14T14:38:23.809Z,23.51
2023-03-14T14:40:55.954Z,23.37
2023-03-14T14:43:28.490Z,23.39
2023-03-14T14:45:59.205Z,24.02
2023-03-14T14:48:29.175Z,24.45
2023-03-14T14:51:00.549Z,23.79
2023-03-14T14:53:37.742Z,23.58
2023-03-14T14:56:24.424Z,24.22
2023-03-14T14:59:00.708Z,24.49
2023-03-14T15:01:40.465Z,24.46
2023-03-14T15:04:14.948Z,24.57
2023-03-14T15:06:50.336Z,24.83
2023-03-14T15:09:19.163Z,25.38
2023-03-14T15:11:48.531Z,25.11
2023-03-14T15:14:17.019Z,24.75
2023-03-14T15:16:45.407Z,24.18
2023-03-14T15:19:24.846Z,24.29
2023-03-14T15:21:54.473Z,24.96
2023-03-14T15:24:23.916Z,24.99
2023-03-14T15:26:52.733Z,25.04
2023-03-14T15:29:21.272Z,25.33
2023-03-14T15:31:49.827Z,25.68
2023-03-14T15:34:18.360Z,25.98
2023-03-14T15:36:46.674Z,25.77
2023-03-14T15:39:15.054Z,25.83
2023-03-14T15:41:43.580Z,25.73
2023-03-14T15:44:11.961Z,26.10
2023-03-14T15:46:40.266Z,26.36
2023-03-14T15:49:09.416Z,26.59
2023-03-14T15:51:37.698Z,26.66
2023-03-14T15:54:06.212Z,26.79
2023-03-14T15:56:34.611Z,27.47
2023-03-14T15:59:02.971Z,28.02
2023-03-14T16:01:31.364Z,28.63
2023-03-14T16:03:59.818Z,29.00
2023-03-14T16:06:28.306Z,29.38
2023-03-14T16:08:56.541Z,30.01
2023-03-14T16:11:24.874Z,30.45
2023-03-14T16:13:53.283Z,30.33
2023-03-14T16:16:30.825Z,30.49
2023-03-14T16:18:59.479Z,31.19
2023-03-14T16:21:27.927Z,32.28
2023-03-14T16:23:56.377Z,31.63
2023-03-14T16:26:24.826Z,32.27
2023-03-14T16:28:54.201Z,32.46
2023-03-14T16:31:23.950Z,33.06
2023-03-14T16:33:52.518Z,33.28
2023-03-14T16:36:21.055Z,33.09
2023-03-14T16:38:49.907Z,33.65
2023-03-14T16:41:20.827Z,35.01
2023-03-14T16:43:54.428Z,34.72
2023-03-14T16:46:23.245Z,34.71
2023-03-14T16:49:00.126Z,35.29
2023-03-14T16:51:28.787Z,34.24
2023-03-14T16:53:57.342Z,35.16
2023-03-14T16:56:28.254Z,36.04
2023-03-14T16:58:56.590Z,36.00
2023-03-14T17:01:24.971Z,36.32
2023-03-14T17:03:53.800Z,35.68
2023-03-14T17:06:45.430Z,36.20
2023-03-14T17:09:13.820Z,36.51
2023-03-14T17:11:45.336Z,35.49
2023-03-14T17:14:13.791Z,36.15
2023-03-14T17:16:42.168Z,36.61
2023-03-14T17:19:10.975Z,36.97
2023-03-14T17:21:42.503Z,37.12
2023-03-14T17:24:11.290Z,38.14
2023-03-14T17:26:45.987Z,37.43
2023-03-14T17:29:14.802Z,37.41
2023-03-14T17:31:55.423Z,38.60
2023-03-14T17:34:33.227Z,37.56
2023-03-14T17:37:06.834Z,38.98
2023-03-14T17:39:39.611Z,38.56
2023-03-14T17:42:08.877Z,38.49
2023-03-14T17:44:42.892Z,39.08
2023-03-14T17:47:20.879Z,41.13
2023-03-14T17:49:49.630Z,40.64
2023-03-14T17:52:18.208Z,40.30
2023-03-14T17:54:46.743Z,39.22
2023-03-14T17:57:17.767Z,40.42
2023-03-14T17:59:46.648Z,39.87
2023-03-14T18:02:18.493Z,39.89
2023-03-14T18:05:04.557Z,39.78
2023-03-14T18:07:58.928Z,40.42
2023-03-14T18:10:53.138Z,41.71
2023-03-14T18:13:26.719Z,42.50
2023-03-14T18:16:14.722Z,41.55
2023-03-14T18:18:46.392Z,44.15
2023-03-14T18:21:29.888Z,45.29
2023-03-14T18:23:58.680Z,43.30
2023-03-14T18:26:49.569Z,42.97
2023-03-14T18:29:37.553Z,45.76
2023-03-14T18:32:37.293Z,45.12
2023-03-14T18:35:26.124Z,43.90
2023-03-14T18:38:37.540Z,44.09
2023-03-14T18:41:24.518Z,45.91
2023-03-14T18:43:56.358Z,46.27
2023-03-14T18:46:39.484Z,45.55
2023-03-14T18:49:31.543Z,44.57
2023-03-14T18:52:00.486Z,44.33
2023-03-14T18:54:31.738Z,45.36
2023-03-14T18:57:00.533Z,44.75
2023-03-14T18:59:35.541Z,46.83
2023-03-14T19:02:09.895Z,46.61
2023-03-14T19:04:54.152Z,46.22
2023-03-14T19:08:03.081Z,46.93
2023-03-14T19:11:10.259Z,45.81
2023-03-14T19:14:23.045Z,46.59
2023-03-14T19:17:20.780Z,47.81
2023-03-14T19:19:58.746Z,47.91
2023-03-14T19:22:46.825Z,48.73
2023-03-14T19:26:04.687Z,46.38
2023-03-14T19:28:55.905Z,46.97
2023-03-14T19:32:15.251Z,48.74
2023-03-14T19:35:24.083Z,48.04
2023-03-14T19:37:55.440Z,47.29
2023-03-14T19:40:43.193Z,48.04
2023-03-14T19:43:17.432Z,48.76
2023-03-14T19:45:46.132Z,50.15
2023-03-14T19:48:30.547Z,49.97
2023-03-14T19:51:15.750Z,49.54
2023-03-14T19:53:44.577Z,49.65
2023-03-14T19:56:26.670Z,49.57
2023-03-14T19:59:00.497Z,48.44
2023-03-14T20:01:35.339Z,50.85
2023-03-14T20:04:14.781Z,49.45
2023-03-14T20:07:02.028Z,50.62
2023-03-14T20:09:59.015Z,50.13
2023-03-14T20:12:46.192Z,50.73
2023-03-14T20:15:29.068Z,50.52
2023-03-14T20:18:00.571Z,49.94
2023-03-14T20:20:35.017Z,49.31
2023-03-14T20:23:37.487Z,50.92
2023-03-14T20:26:13.420Z,50.00
2023-03-14T20:29:07.385Z,51.54
2023-03-14T20:31:40.311Z,51.20
2023-03-14T20:34:09.004Z,50.27
2023-03-14T20:36:42.999Z,50.93
2023-03-14T20:39:19.105Z,50.11
2023-03-14T20:41:51.017Z,49.95
2023-03-14T20:44:22.406Z,50.38
2023-03-14T20:47:42.632Z,49.89
2023-03-14T20:50:20.934Z,50.97
2023-03-14T20:53:02.305Z,49.92
2023-03-14T20:55:31.062Z,50.65
2023-03-14T20:58:00.805Z,49.70
2023-03-14T21:00:30.678Z,51.35
2023-03-14T21:03:10.735Z,51.26
2023-03-14T21:06:24.789Z,50.71
2023-03-14T21:09:23.825Z,52.20
2023-03-14T21:12:24.807Z,51.80
2023-03-14T21:15:43.911Z,52.12
2023-03-14T21:18:18.308Z,53.03
2023-03-14T21:21:09.191Z,52.10
2023-03-14T21:23:46.864Z,52.41
2023-03-14T21:26:17.745Z,54.35
2023-03-14T21:28:56.843Z,53.96
2023-03-14T21:31:28.685Z,53.35
2023-03-14T21:34:05.398Z,53.20
2023-03-14T21:36:38.472Z,54.19
2023-03-14T21:39:14.453Z,54.09
2023-03-14T21:41:46.273Z,55.58
2023-03-14T21:44:20.476Z,53.53
2023-03-14T21:47:10.144Z,55.15
2023-03-14T21:49:42.176Z,54.18
2023-03-14T21:52:26.189Z,55.69
2023-03-14T21:54:59.406Z,56.42
2023-03-14T21:57:30.199Z,54.57
2023-03-14T22:00:01.598Z,54.38
2023-03-14T22:03:12.975Z,55.02
2023-03-14T22:06:14.268Z,56.00
2023-03-14T22:08:50.771Z,56.26
2023-03-14T22:11:41.561Z,56.49
2023-03-14T22:15:11.941Z,56.66
2023-03-14T22:18:34.938Z,57.81
2023-03-14T22:22:12.821Z,55.94
2023-03-14T22:25:52.002Z,55.84
2023-03-14T22:29:06.051Z,55.79
2023-03-14T22:31:46.767Z,58.61
2023-03-14T22:34:25.616Z,56.99
2023-03-14T22:37:23.617Z,55.38
2023-03-14T22:40:09.520Z,54.53
2023-03-14T22:43:57.489Z,54.43
2023-03-14T22:47:01.194Z,54.69
2023-03-14T22:49:44.612Z,54.68
2023-03-14T22:53:13.863Z,54.56
2023-03-14T22:55:50.893Z,54.98
2023-03-14T22:59:10.140Z,55.82
2023-03-14T23:01:41.954Z,55.05
2023-03-14T23:04:34.726Z,55.23
2023-03-14T23:07:27.911Z,55.06
2023-03-14T23:10:10.496Z,55.51
2023-03-14T23:13:13.942Z,55.02
2023-03-14T23:15:55.481Z,55.45
2023-03-14T23:19:08.661Z,56.23
2023-03-14T23:22:10.565Z,55.90
2023-03-14T23:24:49.952Z,56.50
2023-03-14T23:27:46.532Z,57.13
2023-03-14T23:30:48.074Z,59.22
2023-03-14T23:34:37.276Z,57.97
2023-03-14T23:38:26.648Z,55.98
2023-03-14T23:41:38.645Z,56.71
2023-03-14T23:44:30.343Z,55.82
2023-03-14T23:47:13.313Z,56.29
2023-03-14T23:49:51.139Z,56.74
2023-03-14T23:52:46.983Z,56.77
2023-03-14T23:56:27.388Z,56.24
2023-03-14T23:59:26.560Z,57.11
